createdAt,value
2022-11-06T00:01:48.802Z,73.83
2022-11-06T00:06:50.439Z,75.14
2022-11-06T00:11:52.958Z,75.74
2022-11-06T00:16:51.646Z,75.94
2022-11-06T00:21:50.517Z,77.12
2022-11-06T00:26:54.377Z,78.43
2022-11-06T00:31:53.569Z,78.80
2022-11-06T00:36:52.368Z,79.25
2022-11-06T00:41:52.526Z,79.68
2022-11-06T00:46:51.350Z,80.22
2022-11-06T00:51:50.115Z,79.89
2022-11-06T00:56:48.889Z,80.52
2022-11-06T01:01:49.155Z,79.12
2022-11-06T01:06:50.810Z,77.57
2022-11-06T01:12:12.405Z,76.29
2022-11-06T01:17:13.386Z,75.52
2022-11-06T01:22:12.169Z,75.28
2022-11-06T01:27:27.492Z,76.05
2022-11-06T01:32:27.955Z,79.43
2022-11-06T01:37:26.795Z,79.88
2022-11-06T01:42:25.692Z,80.61
2022-11-06T01:47:27.835Z,80.45
2022-11-06T01:52:29.339Z,80.69
2022-11-06T01:57:28.244Z,83.68
2022-11-06T02:02:28.767Z,82.95
2022-11-06T02:07:28.018Z,81.49
2022-11-06T02:12:40.822Z,81.57
2022-11-06T02:17:58.334Z,81.21
2022-11-06T02:23:32.937Z,81.31
2022-11-06T02:28:36.738Z,82.26
2022-11-06T02:33:39.604Z,82.01
2022-11-06T02:38:42.048Z,82.00
2022-11-06T02:43:46.598Z,82.53
2022-11-06T02:48:50.879Z,83.35
2022-11-06T02:53:50.555Z,82.50
2022-11-06T02:58:54.813Z,83.27
2022-11-06T03:03:57.104Z,84.30
2022-11-06T03:09:00.269Z,84.85
2022-11-06T03:14:10.547Z,85.16
2022-11-06T03:19:19.908Z,84.88
2022-11-06T03:24:31.190Z,85.02
2022-11-06T03:29:40.653Z,84.67
2022-11-06T03:34:44.168Z,85.24
2022-11-06T03:39:49.634Z,85.11
2022-11-06T03:44:53.631Z,85.69
2022-11-06T03:49:59.060Z,85.91
2022-11-06T03:55:01.686Z,86.73
2022-11-06T04:00:05.888Z,86.32
2022-11-06T04:05:15.953Z,87.79
2022-11-06T04:10:32.558Z,88.79
2022-11-06T04:15:37.874Z,89.24
2022-11-06T04:21:00.159Z,90.61
2022-11-06T04:26:23.404Z,91.20
2022-11-06T04:31:29.009Z,90.90
2022-11-06T04:36:41.060Z,90.13
2022-11-06T04:41:46.635Z,91.08
2022-11-06T04:46:52.329Z,89.06
2022-11-06T04:51:51.293Z,89.02
2022-11-06T04:56:51.446Z,88.00
2022-11-06T05:01:52.285Z,87.68
2022-11-06T05:06:51.128Z,86.92
2022-11-06T05:11:50.076Z,86.28
2022-11-06T05:16:48.878Z,85.96
2022-11-06T05:22:06.420Z,85.20
2022-11-06T05:27:05.479Z,85.39
2022-11-06T05:32:16.050Z,85.18
2022-11-06T05:37:16.182Z,84.48
2022-11-06T05:42:15.008Z,83.58
2022-11-06T05:47:13.830Z,84.00
2022-11-06T05:52:12.635Z,83.50
2022-11-06T05:57:13.005Z,83.47
2022-11-06T06:02:12.309Z,83.63
2022-11-06T06:07:11.535Z,82.80
2022-11-06T06:12:14.422Z,82.12
2022-11-06T06:17:13.427Z,82.16
2022-11-06T06:22:12.765Z,81.68
2022-11-06T06:27:13.299Z,80.30
2022-11-06T06:32:12.110Z,79.43
2022-11-06T06:37:10.879Z,81.24
2022-11-06T06:42:09.778Z,82.02
2022-11-06T06:47:09.974Z,81.38
2022-11-06T06:52:11.348Z,80.56
2022-11-06T06:57:13.581Z,79.66
2022-11-06T07:02:14.608Z,78.42
2022-11-06T07:07:14.240Z,77.37
2022-11-06T07:12:13.555Z,76.26
2022-11-06T07:17:13.894Z,79.20
2022-11-06T07:22:12.790Z,77.16
2022-11-06T07:27:11.620Z,76.29
2022-11-06T07:32:10.489Z,76.29
2022-11-06T07:37:10.711Z,76.52
2022-11-06T07:42:09.552Z,75.04
2022-11-06T07:47:09.261Z,100.00
2022-11-06T07:52:08.016Z,83.48
2022-11-06T07:57:08.149Z,71.09
2022-11-06T08:02:07.142Z,71.23
2022-11-06T08:07:06.526Z,67.63
2022-11-06T08:12:05.686Z,71.78
2022-11-06T08:17:05.815Z,70.98
2022-11-06T08:22:04.641Z,61.38
2022-11-06T08:27:04.004Z,62.48
2022-11-06T08:32:05.413Z,62.88
2022-11-06T08:37:04.383Z,62.92
2022-11-06T08:42:05.279Z,62.44
2022-11-06T08:47:05.878Z,62.36
2022-11-06T08:52:05.709Z,61.67
2022-11-06T08:57:04.617Z,60.43
2022-11-06T09:02:03.544Z,59.31
2022-11-06T09:07:03.870Z,57.90
2022-11-06T09:12:05.234Z,57.33
2022-11-06T09:17:04.102Z,57.13
2022-11-06T09:22:06.952Z,55.75
2022-11-06T09:27:09.796Z,54.93
2022-11-06T09:32:10.062Z,53.19
2022-11-06T09:37:11.457Z,52.91
2022-11-06T09:42:20.775Z,52.03
2022-11-06T09:47:26.458Z,53.19
2022-11-06T09:52:34.591Z,51.21
2022-11-06T09:57:41.230Z,51.55
2022-11-06T10:02:48.988Z,50.14
2022-11-06T10:07:53.682Z,49.17
2022-11-06T10:13:07.875Z,49.57
2022-11-06T10:18:14.516Z,53.48
2022-11-06T10:23:21.693Z,47.80
2022-11-06T10:28:34.216Z,45.78
2022-11-06T10:33:45.029Z,44.39
2022-11-06T10:38:49.278Z,44.41
2022-11-06T10:43:53.825Z,42.46
2022-11-06T10:48:59.264Z,40.63
2022-11-06T10:54:15.567Z,40.16
2022-11-06T10:59:18.101Z,41.16
2022-11-06T11:04:19.427Z,40.11
2022-11-06T11:09:31.625Z,40.01
2022-11-06T11:14:32.429Z,39.71
2022-11-06T11:19:41.555Z,39.25
2022-11-06T11:25:00.931Z,40.09
2022-11-06T11:29:59.916Z,40.00
2022-11-06T11:34:59.827Z,38.15
2022-11-06T11:40:22.092Z,34.89
2022-11-06T11:45:22.790Z,35.61
2022-11-06T11:50:29.049Z,32.90
2022-11-06T11:55:31.405Z,32.56
2022-11-06T12:00:31.149Z,32.09
2022-11-06T12:05:36.825Z,32.06
2022-11-06T12:10:39.196Z,31.77
2022-11-06T12:15:45.539Z,30.37
2022-11-06T12:20:52.482Z,29.20
2022-11-06T12:26:01.237Z,29.94
2022-11-06T12:31:07.311Z,29.90
2022-11-06T12:36:09.829Z,31.57
2022-11-06T12:41:16.355Z,31.12
2022-11-06T12:46:39.778Z,29.25
2022-11-06T12:51:47.710Z,31.82
2022-11-06T12:56:56.385Z,32.15
2022-11-06T13:02:05.517Z,31.64
2022-11-06T13:07:53.885Z,33.20
2022-11-06T13:13:16.417Z,34.01
2022-11-06T13:18:21.215Z,34.79
2022-11-06T13:23:27.163Z,35.82
2022-11-06T13:28:39.003Z,36.71
2022-11-06T13:33:45.946Z,36.70
2022-11-06T13:38:52.646Z,38.23
2022-11-06T13:43:59.964Z,38.89
2022-11-06T13:49:08.216Z,39.17
2022-11-06T13:54:16.218Z,40.39
2022-11-06T13:59:34.315Z,41.79
2022-11-06T14:04:58.296Z,42.24
2022-11-06T14:09:57.521Z,42.79
2022-11-06T14:15:24.453Z,42.13
2022-11-06T14:20:32.802Z,42.63
2022-11-06T14:26:00.137Z,43.40
2022-11-06T14:31:21.448Z,43.48
2022-11-06T14:36:30.209Z,43.98
2022-11-06T14:41:54.710Z,44.65
2022-11-06T14:46:58.383Z,45.18
2022-11-06T14:52:02.966Z,45.37
2022-11-06T14:57:02.034Z,45.33
2022-11-06T15:02:13.372Z,46.04
2022-11-06T15:08:02.764Z,46.02
2022-11-06T15:13:12.779Z,46.06
2022-11-06T15:18:19.280Z,46.88
2022-11-06T15:23:23.680Z,46.79
2022-11-06T15:28:27.133Z,47.13
2022-11-06T15:33:32.353Z,47.93
2022-11-06T15:38:39.556Z,49.84
2022-11-06T15:43:38.765Z,50.73
2022-11-06T15:48:39.471Z,52.81
2022-11-06T15:53:41.442Z,54.16
2022-11-06T15:58:43.400Z,54.39
2022-11-06T16:03:48.379Z,55.77
2022-11-06T16:08:48.306Z,55.29
2022-11-06T16:13:47.891Z,56.01
2022-11-06T16:18:49.509Z,55.50
2022-11-06T16:23:51.955Z,56.08
2022-11-06T16:28:51.396Z,55.61
2022-11-06T16:33:58.323Z,56.58
2022-11-06T16:39:48.777Z,56.80
2022-11-06T16:44:50.047Z,57.17
2022-11-06T16:49:54.302Z,57.43
2022-11-06T16:54:56.406Z,57.71
2022-11-06T17:00:02.573Z,57.44
2022-11-06T17:05:12.081Z,58.74
2022-11-06T17:10:41.745Z,58.55
2022-11-06T17:15:40.779Z,59.29
2022-11-06T17:20:42.977Z,59.23
2022-11-06T17:25:42.009Z,59.65
2022-11-06T17:30:46.654Z,59.60
2022-11-06T17:35:59.624Z,59.77
2022-11-06T17:41:01.365Z,59.57
2022-11-06T17:46:10.254Z,59.03
2022-11-06T17:51:28.205Z,59.62
2022-11-06T17:56:37.788Z,58.86
2022-11-06T18:01:37.425Z,59.45
2022-11-06T18:06:53.543Z,59.26
2022-11-06T18:11:55.417Z,59.53
2022-11-06T18:16:54.858Z,59.42
2022-11-06T18:21:58.270Z,59.42
2022-11-06T18:26:58.850Z,58.93
2022-11-06T18:31:57.859Z,59.24
2022-11-06T18:36:58.000Z,58.38
2022-11-06T18:42:00.666Z,58.81
2022-11-06T18:46:59.691Z,59.20
2022-11-06T18:52:00.483Z,58.88
2022-11-06T18:56:59.263Z,59.32
2022-11-06T19:02:03.571Z,58.97
2022-11-06T19:07:07.192Z,59.13
2022-11-06T19:12:07.074Z,59.28
2022-11-06T19:17:06.174Z,59.20
2022-11-06T19:22:06.765Z,59.83
2022-11-06T19:27:09.399Z,59.01
2022-11-06T19:32:13.033Z,59.52
2022-11-06T19:37:14.966Z,60.05
2022-11-06T19:42:17.773Z,60.39
2022-11-06T19:47:17.388Z,61.16
2022-11-06T19:52:42.861Z,61.10
2022-11-06T19:58:09.384Z,60.58
2022-11-06T20:03:08.615Z,61.28
2022-11-06T20:08:09.304Z,61.11
2022-11-06T20:13:09.037Z,60.75
2022-11-06T20:18:07.814Z,61.48
2022-11-06T20:23:08.155Z,61.69
2022-11-06T20:28:07.095Z,61.16
2022-11-06T20:33:06.069Z,60.94
2022-11-06T20:38:05.138Z,60.69
2022-11-06T20:43:06.374Z,60.32
2022-11-06T20:48:05.877Z,60.78
2022-11-06T20:53:05.668Z,60.58
2022-11-06T20:58:12.974Z,60.59
2022-11-06T21:03:12.218Z,60.67
2022-11-06T21:08:11.368Z,60.24
2022-11-06T21:13:14.434Z,60.28
2022-11-06T21:18:13.605Z,61.11
2022-11-06T21:23:20.113Z,60.41
2022-11-06T21:28:30.135Z,60.66
2022-11-06T21:33:30.958Z,60.51
2022-11-06T21:38:29.956Z,60.69
2022-11-06T21:43:32.166Z,60.52
2022-11-06T21:48:50.116Z,61.14
2022-11-06T21:54:10.237Z,61.31
2022-11-06T21:59:12.885Z,61.66
2022-11-06T22:04:12.569Z,61.82
2022-11-06T22:09:12.544Z,61.90
2022-11-06T22:14:16.377Z,62.30
2022-11-06T22:19:17.761Z,62.55
2022-11-06T22:24:17.262Z,62.50
2022-11-06T22:29:17.523Z,62.75
2022-11-06T22:34:16.353Z,63.14
2022-11-06T22:39:15.159Z,62.75
2022-11-06T22:44:13.932Z,62.78
2022-11-06T22:49:14.309Z,63.25
2022-11-06T22:54:13.670Z,62.79
2022-11-06T22:59:13.595Z,63.13
2022-11-06T23:04:16.313Z,62.67
2022-11-06T23:09:15.110Z,61.75
2022-11-06T23:14:13.879Z,61.62
2022-11-06T23:19:17.130Z,61.26
2022-11-06T23:24:16.127Z,60.46
2022-11-06T23:29:14.892Z,61.10
2022-11-06T23:34:13.711Z,61.23
2022-11-06T23:39:13.934Z,60.94
2022-11-06T23:44:27.627Z,61.00
2022-11-06T23:49:26.879Z,61.26
2022-11-06T23:54:27.138Z,61.67
2022-11-06T23:59:25.996Z,61.72
